createdAt,value
2023-05-29T00:02:21.047Z,8.10
2023-05-29T00:05:23.556Z,7.70
2023-05-29T00:08:26.236Z,8.48
2023-05-29T00:11:28.707Z,8.32
2023-05-29T00:14:31.175Z,10.02
2023-05-29T00:17:33.743Z,9.15
2023-05-29T00:20:37.156Z,10.68
2023-05-29T00:23:40.423Z,7.65
2023-05-29T00:26:42.942Z,7.80
2023-05-29T00:29:46.293Z,8.82
2023-05-29T00:32:48.894Z,8.52
2023-05-29T00:35:52.483Z,6.93
2023-05-29T00:38:55.021Z,9.95
2023-05-29T00:41:58.142Z,9.35
2023-05-29T00:45:00.566Z,7.43
2023-05-29T00:48:04.952Z,8.57
2023-05-29T00:51:07.679Z,8.32
2023-05-29T00:54:12.160Z,9.10
2023-05-29T00:57:14.709Z,8.93
2023-05-29T01:00:17.729Z,7.18
2023-05-29T01:03:21.032Z,9.68
2023-05-29T01:06:24.457Z,7.95
2023-05-29T01:09:27.252Z,7.50
2023-05-29T01:12:44.975Z,7.65
2023-05-29T01:15:53.531Z,6.78
2023-05-29T01:19:16.514Z,10.45
2023-05-29T01:22:34.458Z,7.78
2023-05-29T01:25:58.486Z,8.98
2023-05-29T01:29:01.919Z,8.85
2023-05-29T01:32:04.886Z,7.22
2023-05-29T01:38:10.261Z,6.68
2023-05-29T01:41:12.635Z,9.73
2023-05-29T01:44:15.313Z,8.40
2023-05-29T01:47:17.754Z,10.30
2023-05-29T01:50:20.390Z,9.13
2023-05-29T01:53:24.139Z,9.38
2023-05-29T01:56:28.630Z,8.98
2023-05-29T01:59:31.549Z,7.68
2023-05-29T02:02:34.137Z,8.63
2023-05-29T02:05:36.601Z,8.43
2023-05-29T02:08:39.219Z,8.45
2023-05-29T02:11:46.741Z,9.70
2023-05-29T02:14:49.381Z,7.80
2023-05-29T02:17:51.829Z,7.10
2023-05-29T02:20:57.195Z,8.73
2023-05-29T02:23:59.858Z,9.48
2023-05-29T02:27:02.303Z,8.48
2023-05-29T02:30:06.331Z,8.70
2023-05-29T02:33:09.805Z,11.23
2023-05-29T02:36:12.984Z,8.18
2023-05-29T02:39:15.618Z,8.35
2023-05-29T02:42:18.107Z,7.90
2023-05-29T02:45:20.681Z,8.88
2023-05-29T02:48:23.480Z,7.68
2023-05-29T02:51:26.548Z,10.25
2023-05-29T02:54:29.661Z,8.23
2023-05-29T02:57:32.485Z,8.30
2023-05-29T03:00:37.988Z,8.48
2023-05-29T03:03:40.514Z,8.70
2023-05-29T03:06:43.086Z,8.15
2023-05-29T03:09:45.831Z,9.18
2023-05-29T03:15:52.212Z,8.20
2023-05-29T03:18:55.021Z,10.30
2023-05-29T03:21:57.597Z,8.95
2023-05-29T03:25:00.545Z,8.88
2023-05-29T03:31:05.623Z,7.00
2023-05-29T03:34:08.328Z,9.07
2023-05-29T03:37:15.074Z,7.68
2023-05-29T03:43:19.761Z,8.95
2023-05-29T03:46:23.900Z,8.65
2023-05-29T03:49:26.603Z,8.38
2023-05-29T03:52:29.084Z,7.32
2023-05-29T03:58:37.515Z,8.48
2023-05-29T04:01:40.566Z,7.05
2023-05-29T04:04:44.055Z,8.82
2023-05-29T04:07:47.258Z,7.25
2023-05-29T04:10:55.005Z,10.35
2023-05-29T04:13:58.562Z,8.70
2023-05-29T04:17:01.178Z,9.68
2023-05-29T04:20:09.416Z,7.63
2023-05-29T04:23:12.732Z,8.73
2023-05-29T04:26:15.254Z,9.30
2023-05-29T04:29:18.382Z,8.75
2023-05-29T04:32:22.547Z,8.30
2023-05-29T04:35:25.030Z,8.43
2023-05-29T04:38:33.088Z,9.40
2023-05-29T04:44:41.058Z,8.50
2023-05-29T04:47:46.692Z,7.03
2023-05-29T04:50:49.737Z,8.13
2023-05-29T04:53:55.142Z,7.95
2023-05-29T04:56:57.827Z,8.50
2023-05-29T05:00:09.593Z,8.10
2023-05-29T05:03:17.758Z,8.98
2023-05-29T05:06:20.669Z,8.55
2023-05-29T05:09:23.266Z,7.45
2023-05-29T05:12:26.291Z,8.48
2023-05-29T05:15:29.883Z,7.03
2023-05-29T05:21:55.325Z,7.65
2023-05-29T05:25:00.731Z,9.13
2023-05-29T05:28:04.810Z,8.90
2023-05-29T05:31:10.057Z,8.77
2023-05-29T05:34:13.033Z,7.88
2023-05-29T05:37:17.136Z,10.23
2023-05-29T05:40:19.927Z,7.97
2023-05-29T05:43:32.013Z,7.50
2023-05-29T05:46:50.872Z,6.55
2023-05-29T05:49:55.664Z,8.10
2023-05-29T05:52:59.732Z,7.13
2023-05-29T05:56:02.718Z,8.32
2023-05-29T05:59:06.944Z,7.15
2023-05-29T06:02:09.991Z,7.85
2023-05-29T06:05:13.369Z,9.20
2023-05-29T06:08:17.497Z,7.78
2023-05-29T06:11:20.335Z,7.40
2023-05-29T06:14:24.965Z,8.02
2023-05-29T06:17:29.221Z,7.03
2023-05-29T06:20:32.131Z,8.68
2023-05-29T06:23:34.950Z,9.20
2023-05-29T06:26:38.715Z,8.00
2023-05-29T06:29:43.590Z,7.07
2023-05-29T06:32:46.854Z,8.75
2023-05-29T06:35:49.996Z,9.43
2023-05-29T06:38:52.989Z,9.32
2023-05-29T06:41:55.924Z,8.13
2023-05-29T06:44:59.144Z,10.75
2023-05-29T06:48:02.038Z,8.00
2023-05-29T06:51:09.669Z,7.97
2023-05-29T06:54:24.427Z,7.65
2023-05-29T06:57:27.358Z,10.25
2023-05-29T07:00:30.146Z,7.07
2023-05-29T07:03:55.396Z,9.20
2023-05-29T07:06:58.191Z,7.97
2023-05-29T07:10:00.816Z,7.63
2023-05-29T07:13:03.969Z,8.70
2023-05-29T07:16:20.785Z,7.72
2023-05-29T07:19:33.699Z,9.82
2023-05-29T07:22:42.588Z,8.68
2023-05-29T07:28:47.595Z,7.93
2023-05-29T07:31:53.403Z,8.43
2023-05-29T07:34:58.058Z,7.78
2023-05-29T07:38:01.514Z,9.57
2023-05-29T07:41:04.087Z,7.63
2023-05-29T07:44:08.087Z,9.10
2023-05-29T07:50:17.329Z,9.30
2023-05-29T07:53:19.999Z,8.52
2023-05-29T07:56:23.663Z,7.65
2023-05-29T07:59:26.405Z,8.13
2023-05-29T08:02:29.174Z,8.35
2023-05-29T08:05:51.673Z,9.35
2023-05-29T08:08:56.160Z,6.57
2023-05-29T08:12:00.518Z,8.63
2023-05-29T08:15:04.620Z,7.82
2023-05-29T08:18:08.099Z,8.30
2023-05-29T08:21:11.876Z,6.95
2023-05-29T08:24:15.573Z,7.85
2023-05-29T08:27:18.540Z,8.00
2023-05-29T08:30:21.571Z,10.80
2023-05-29T08:33:24.152Z,7.80
2023-05-29T08:36:26.985Z,8.98
2023-05-29T08:39:29.843Z,9.52
2023-05-29T08:42:34.892Z,8.77
2023-05-29T08:45:38.842Z,10.63
2023-05-29T08:48:41.747Z,10.00
2023-05-29T08:51:44.695Z,10.50
2023-05-29T08:54:47.428Z,9.05
2023-05-29T08:57:49.996Z,7.65
2023-05-29T09:00:52.771Z,8.82
2023-05-29T09:03:55.890Z,13.07
2023-05-29T09:06:59.998Z,11.77
2023-05-29T09:10:02.537Z,10.77
2023-05-29T09:13:05.498Z,8.25
2023-05-29T09:16:08.746Z,13.00
2023-05-29T09:19:13.651Z,11.18
2023-05-29T09:22:16.522Z,10.20
2023-05-29T09:25:22.406Z,8.10
2023-05-29T09:28:26.585Z,12.57
2023-05-29T09:31:29.916Z,12.85
2023-05-29T09:34:32.546Z,8.98
2023-05-29T09:37:36.534Z,9.15
2023-05-29T09:40:39.654Z,8.50
2023-05-29T09:43:42.394Z,11.15
2023-05-29T09:46:45.903Z,9.80
2023-05-29T09:49:48.527Z,7.45
2023-05-29T09:55:57.105Z,7.72
2023-05-29T09:59:00.271Z,11.40
2023-05-29T10:05:12.893Z,10.40
2023-05-29T10:08:16.518Z,9.30
2023-05-29T10:11:22.888Z,10.45
2023-05-29T10:14:25.476Z,11.30
2023-05-29T10:17:32.497Z,9.02
2023-05-29T10:20:35.098Z,9.00
2023-05-29T10:23:38.051Z,10.15
2023-05-29T10:26:41.593Z,9.52
2023-05-29T10:29:43.916Z,9.82
2023-05-29T10:33:09.073Z,10.75
2023-05-29T10:36:19.316Z,9.52
2023-05-29T10:39:22.988Z,9.75
2023-05-29T10:42:48.919Z,10.20
2023-05-29T10:45:52.442Z,8.75
2023-05-29T10:48:55.657Z,10.60
2023-05-29T10:51:59.991Z,8.00
2023-05-29T10:55:05.556Z,9.20
2023-05-29T10:58:09.017Z,9.95
2023-05-29T11:01:11.754Z,8.73
2023-05-29T11:04:17.091Z,10.32
2023-05-29T11:07:53.919Z,8.10
2023-05-29T11:10:56.931Z,12.68
2023-05-29T11:14:04.268Z,9.82
2023-05-29T11:17:06.760Z,9.52
2023-05-29T11:20:16.086Z,10.60
2023-05-29T11:23:19.591Z,11.48
2023-05-29T11:26:24.034Z,10.45
2023-05-29T11:29:28.923Z,8.98
2023-05-29T11:32:31.410Z,8.68
2023-05-29T11:38:36.794Z,11.88
2023-05-29T11:41:39.491Z,9.57
2023-05-29T11:47:58.104Z,10.57
2023-05-29T11:51:07.463Z,9.48
2023-05-29T11:54:13.017Z,10.95
2023-05-29T11:57:21.785Z,9.02
2023-05-29T12:00:25.321Z,8.45
2023-05-29T12:03:28.668Z,10.40
2023-05-29T12:06:39.732Z,8.00
2023-05-29T12:09:42.298Z,8.23
2023-05-29T12:12:55.231Z,7.78
2023-05-29T12:15:59.940Z,8.23
2023-05-29T12:19:02.307Z,7.53
2023-05-29T12:22:05.536Z,11.90
2023-05-29T12:25:14.956Z,7.93
2023-05-29T12:28:20.890Z,9.88
2023-05-29T12:31:30.311Z,8.32
2023-05-29T12:34:39.048Z,7.90
2023-05-29T12:37:48.820Z,7.55
2023-05-29T12:40:52.802Z,10.13
2023-05-29T12:43:56.442Z,9.77
2023-05-29T12:46:59.262Z,7.28
2023-05-29T12:50:21.981Z,7.97
2023-05-29T12:53:29.103Z,8.43
2023-05-29T12:56:31.564Z,6.93
2023-05-29T12:59:34.396Z,8.02
2023-05-29T13:02:37.129Z,8.75
2023-05-29T13:05:39.838Z,8.10
2023-05-29T13:08:42.276Z,8.80
2023-05-29T13:11:44.847Z,9.82
2023-05-29T13:14:47.461Z,7.32
2023-05-29T13:17:50.716Z,8.27
2023-05-29T13:20:53.312Z,7.22
2023-05-29T13:23:56.140Z,7.55
2023-05-29T13:26:59.187Z,8.20
2023-05-29T13:30:02.003Z,8.57
2023-05-29T13:33:04.561Z,6.45
2023-05-29T13:36:09.167Z,9.80
2023-05-29T13:39:12.140Z,7.93
2023-05-29T13:42:14.602Z,6.68
2023-05-29T13:45:17.426Z,7.13
2023-05-29T13:48:20.477Z,9.90
2023-05-29T13:51:23.287Z,33.25
2023-05-29T13:54:26.166Z,15.10
2023-05-29T13:57:29.039Z,8.55
2023-05-29T14:00:31.664Z,10.43
2023-05-29T14:03:34.380Z,8.10
2023-05-29T14:06:38.068Z,7.22
2023-05-29T14:09:41.051Z,8.48
2023-05-29T14:12:43.695Z,7.68
2023-05-29T14:15:46.364Z,10.63
2023-05-29T14:18:49.809Z,7.95
2023-05-29T14:21:53.051Z,8.40
2023-05-29T14:24:57.002Z,8.80
2023-05-29T14:27:59.415Z,7.30
2023-05-29T14:31:01.967Z,9.48
2023-05-29T14:34:04.532Z,8.05
2023-05-29T14:37:07.100Z,9.27
2023-05-29T14:40:10.317Z,8.02
2023-05-29T14:43:12.883Z,10.15
2023-05-29T14:46:15.394Z,7.75
2023-05-29T14:49:17.885Z,8.45
2023-05-29T14:52:20.377Z,8.88
2023-05-29T14:55:22.794Z,9.02
2023-05-29T14:58:25.540Z,8.02
2023-05-29T15:01:28.585Z,7.90
2023-05-29T15:04:31.099Z,9.32
2023-05-29T15:07:35.342Z,11.23
2023-05-29T15:10:37.821Z,9.32
2023-05-29T15:13:40.397Z,10.40
2023-05-29T15:16:44.032Z,8.10
2023-05-29T15:19:46.548Z,7.38
2023-05-29T15:22:49.369Z,7.72
2023-05-29T15:25:51.935Z,7.60
2023-05-29T15:28:54.540Z,7.63
2023-05-29T15:31:57.087Z,9.32
2023-05-29T15:34:59.718Z,9.27
2023-05-29T15:38:02.234Z,7.53
2023-05-29T15:41:04.718Z,8.13
2023-05-29T15:44:07.178Z,8.70
2023-05-29T15:47:09.583Z,12.23
2023-05-29T15:50:12.137Z,7.90
2023-05-29T15:53:15.061Z,12.60
2023-05-29T15:56:17.601Z,10.35
2023-05-29T15:59:20.095Z,10.15
2023-05-29T16:02:22.563Z,8.35
2023-05-29T16:05:25.115Z,8.63
2023-05-29T16:08:27.538Z,8.57
2023-05-29T16:11:30.294Z,9.43
2023-05-29T16:14:32.736Z,7.28
2023-05-29T16:17:36.177Z,8.27
2023-05-29T16:20:39.022Z,7.13
2023-05-29T16:23:41.680Z,9.02
2023-05-29T16:26:44.423Z,9.82
2023-05-29T16:29:46.890Z,8.60
2023-05-29T16:32:49.484Z,9.90
2023-05-29T16:35:52.191Z,7.80
2023-05-29T16:38:54.597Z,11.93
2023-05-29T16:41:57.179Z,8.75
2023-05-29T16:44:59.553Z,10.07
2023-05-29T16:48:02.195Z,9.52
2023-05-29T16:51:04.687Z,9.15
2023-05-29T16:54:07.258Z,9.40
2023-05-29T16:57:12.712Z,7.70
2023-05-29T17:00:15.885Z,8.10
2023-05-29T17:03:18.384Z,8.45
2023-05-29T17:06:20.952Z,11.45
2023-05-29T17:09:27.873Z,10.75
2023-05-29T17:12:30.607Z,8.65
2023-05-29T17:15:33.711Z,9.73
2023-05-29T17:18:36.173Z,10.15
2023-05-29T17:21:38.663Z,9.98
2023-05-29T17:24:41.190Z,8.95
2023-05-29T17:27:43.858Z,9.43
2023-05-29T17:30:46.426Z,9.43
2023-05-29T17:33:49.058Z,9.07
2023-05-29T17:36:51.632Z,10.88
2023-05-29T17:39:54.926Z,9.20
2023-05-29T17:42:58.032Z,10.45
2023-05-29T17:46:00.962Z,10.55
2023-05-29T17:49:03.742Z,9.40
2023-05-29T17:52:09.522Z,9.55
2023-05-29T17:55:12.067Z,9.10
2023-05-29T17:58:14.491Z,10.57
2023-05-29T18:01:18.342Z,9.73
2023-05-29T18:04:21.129Z,9.82
2023-05-29T18:07:24.022Z,10.50
2023-05-29T18:10:27.140Z,9.80
2023-05-29T18:13:30.323Z,10.82
2023-05-29T18:16:39.509Z,11.18
2023-05-29T18:19:42.123Z,9.75
2023-05-29T18:25:46.697Z,18.02
2023-05-29T18:31:51.538Z,12.90
2023-05-29T18:34:54.193Z,14.07
2023-05-29T18:37:56.893Z,13.63
2023-05-29T18:40:59.471Z,13.60
2023-05-29T18:44:02.195Z,12.02
2023-05-29T18:50:08.277Z,15.07
2023-05-29T18:53:10.892Z,13.50
2023-05-29T18:59:15.641Z,14.90
2023-05-29T19:02:18.387Z,16.33
2023-05-29T19:08:24.079Z,15.90
2023-05-29T19:11:26.937Z,15.90
2023-05-29T19:14:29.761Z,15.90
2023-05-29T19:17:32.540Z,16.48
2023-05-29T19:20:36.215Z,14.15
2023-05-29T19:23:39.078Z,15.82
2023-05-29T19:26:42.843Z,15.07
2023-05-29T19:29:45.456Z,18.00
2023-05-29T19:35:50.260Z,12.48
2023-05-29T19:38:52.710Z,14.13
2023-05-29T19:41:55.199Z,13.23
2023-05-29T19:44:57.709Z,14.60
2023-05-29T19:48:00.272Z,13.00
2023-05-29T19:54:04.951Z,12.55
2023-05-29T19:57:10.390Z,14.15
2023-05-29T20:00:13.385Z,12.40
2023-05-29T20:03:16.578Z,13.98
2023-05-29T20:09:21.444Z,12.55
2023-05-29T20:15:26.472Z,14.65
2023-05-29T20:18:29.604Z,13.73
2023-05-29T20:21:33.374Z,14.43
2023-05-29T20:24:35.874Z,13.05
2023-05-29T20:27:38.480Z,14.35
2023-05-29T20:30:42.254Z,15.75
2023-05-29T20:33:44.683Z,15.70
2023-05-29T20:36:47.902Z,14.60
2023-05-29T20:39:51.056Z,15.18
2023-05-29T20:42:56.018Z,14.35
2023-05-29T20:45:59.476Z,16.38
2023-05-29T20:49:02.450Z,17.52
2023-05-29T20:52:05.226Z,23.00
2023-05-29T20:55:08.343Z,22.77
2023-05-29T20:58:10.711Z,26.55
2023-05-29T21:01:13.378Z,20.73
2023-05-29T21:07:18.365Z,16.45
2023-05-29T21:10:20.826Z,17.75
2023-05-29T21:13:23.681Z,15.70
2023-05-29T21:16:26.276Z,19.90
2023-05-29T21:19:28.743Z,28.33
2023-05-29T21:22:31.884Z,30.05
2023-05-29T21:25:34.484Z,25.52
2023-05-29T21:28:38.583Z,27.77
2023-05-29T21:31:41.863Z,23.27
2023-05-29T21:34:44.422Z,27.70
2023-05-29T21:37:47.150Z,21.15
2023-05-29T21:43:52.298Z,18.02
2023-05-29T21:49:58.441Z,17.33
2023-05-29T21:53:01.580Z,15.95
2023-05-29T21:56:04.350Z,14.80
2023-05-29T22:02:10.440Z,14.73
2023-05-29T22:05:12.967Z,13.68
2023-05-29T22:08:15.594Z,13.00
2023-05-29T22:11:17.996Z,13.90
2023-05-29T22:14:20.814Z,14.90
2023-05-29T22:17:24.992Z,14.82
2023-05-29T22:20:27.854Z,14.40
2023-05-29T22:23:31.887Z,13.35
2023-05-29T22:26:34.524Z,14.18
2023-05-29T22:29:37.003Z,12.55
2023-05-29T22:32:42.389Z,14.85
2023-05-29T22:35:44.975Z,17.40
2023-05-29T22:38:47.918Z,16.30
2023-05-29T22:41:50.405Z,15.98
2023-05-29T22:44:52.888Z,14.73
2023-05-29T22:47:55.381Z,14.10
2023-05-29T22:50:58.164Z,12.43
2023-05-29T22:54:01.804Z,14.32
2023-05-29T22:57:06.292Z,14.73
2023-05-29T23:00:10.015Z,14.32
2023-05-29T23:03:14.455Z,14.18
2023-05-29T23:06:17.137Z,13.52
2023-05-29T23:09:19.984Z,14.95
2023-05-29T23:15:27.918Z,12.10
2023-05-29T23:18:31.068Z,13.95
2023-05-29T23:21:34.019Z,13.93
2023-05-29T23:27:42.172Z,12.52
2023-05-29T23:30:44.762Z,12.98
2023-05-29T23:33:48.178Z,13.23
2023-05-29T23:36:50.760Z,13.15
2023-05-29T23:39:53.366Z,13.63
2023-05-29T23:42:56.057Z,13.20
2023-05-29T23:45:58.509Z,13.73
2023-05-29T23:49:01.387Z,12.23
2023-05-29T23:55:07.502Z,14.52
2023-05-29T23:58:09.961Z,14.70
